sensor_id;sensor_type;location;lat;lon;timestamp;temperature;humidity
35668;DHT22;22158;59.280;17.806;2023-03-31T05:01:27;-1.10;99.90
35668;DHT22;22158;59.280;17.806;2023-03-31T05:03:58;-1.00;99.90
35668;DHT22;22158;59.280;17.806;2023-03-31T05:06:23;-1.00;99.90
35668;DHT22;22158;59.280;17.806;2023-03-31T05:08:49;-1.10;99.90
35668;DHT22;22158;59.280;17.806;2023-03-31T05:11:14;-1.10;99.90
35668;DHT22;22158;59.280;17.806;2023-03-31T05:13:40;-1.10;99.90
35668;DHT22;22158;59.280;17.806;2023-03-31T05:16:10;-1.00;99.90
35668;DHT22;22158;59.280;17.806;2023-03-31T05:18:42;-1.00;99.90
35668;DHT22;22158;59.280;17.806;2023-03-31T05:21:13;-1.00;99.90
35668;DHT22;22158;59.280;17.806;2023-03-31T05:23:39;-1.00;99.90
35668;DHT22;22158;59.280;17.806;2023-03-31T05:26:04;-0.90;99.90
35668;DHT22;22158;59.280;17.806;2023-03-31T05:28:30;-0.90;99.90
35668;DHT22;22158;59.280;17.806;2023-03-31T05:30:58;-0.90;99.90
35668;DHT22;22158;59.280;17.806;2023-03-31T05:33:26;-0.90;99.90
35668;DHT22;22158;59.280;17.806;2023-03-31T05:35:51;-0.90;99.90
35668;DHT22;22158;59.280;17.806;2023-03-31T05:38:17;-0.90;99.90
35668;DHT22;22158;59.280;17.806;2023-03-31T05:40:42;-0.80;99.90
35668;DHT22;22158;59.280;17.806;2023-03-31T05:43:08;-0.80;99.90
35668;DHT22;22158;59.280;17.806;2023-03-31T05:45:34;-0.80;99.90
35668;DHT22;22158;59.280;17.806;2023-03-31T05:47:59;-0.90;99.90
35668;DHT22;22158;59.280;17.806;2023-03-31T05:50:25;-0.90;99.90
35668;DHT22;22158;59.280;17.806;2023-03-31T05:52:51;-0.90;99.90
35668;DHT22;22158;59.280;17.806;2023-03-31T05:55:17;-0.80;99.90
35668;DHT22;22158;59.280;17.806;2023-03-31T05:57:43;-0.80;99.90
35668;DHT22;22158;59.280;17.806;2023-03-31T06:00:09;-0.80;99.90
35668;DHT22;22158;59.280;17.806;2023-03-31T06:02:38;-0.80;99.90
35668;DHT22;22158;59.280;17.806;2023-03-31T06:05:05;-0.80;99.90
35668;DHT22;22158;59.280;17.806;2023-03-31T06:07:31;-0.80;99.90
35668;DHT22;22158;59.280;17.806;2023-03-31T06:09:56;-0.80;99.90
35668;DHT22;22158;59.280;17.806;2023-03-31T06:12:22;-0.80;99.90
35668;DHT22;22158;59.280;17.806;2023-03-31T06:14:47;-0.70;99.90
35668;DHT22;22158;59.280;17.806;2023-03-31T06:17:13;-0.70;99.90
35668;DHT22;22158;59.280;17.806;2023-03-31T06:19:38;-0.70;99.90
35668;DHT22;22158;59.280;17.806;2023-03-31T06:22:04;-0.70;99.90
35668;DHT22;22158;59.280;17.806;2023-03-31T06:24:30;-0.70;99.90
35668;DHT22;22158;59.280;17.806;2023-03-31T06:26:55;-0.70;99.90
35668;DHT22;22158;59.280;17.806;2023-03-31T06:29:21;-0.70;99.90
35668;DHT22;22158;59.280;17.806;2023-03-31T06:31:46;-0.70;99.90
35668;DHT22;22158;59.280;17.806;2023-03-31T06:34:12;-0.70;99.90
35668;DHT22;22158;59.280;17.806;2023-03-31T06:36:38;-0.70;99.90
35668;DHT22;22158;59.280;17.806;2023-03-31T06:39:03;-0.60;99.90
35668;DHT22;22158;59.280;17.806;2023-03-31T06:41:29;-0.70;99.90
35668;DHT22;22158;59.280;17.806;2023-03-31T06:43:54;-0.70;99.90
35668;DHT22;22158;59.280;17.806;2023-03-31T06:46:20;-0.60;99.90
35668;DHT22;22158;59.280;17.806;2023-03-31T06:48:45;-0.60;99.90
35668;DHT22;22158;59.280;17.806;2023-03-31T06:51:11;-0.50;99.90
35668;DHT22;22158;59.280;17.806;2023-03-31T06:53:37;-0.50;99.90
35668;DHT22;22158;59.280;17.806;2023-03-31T06:56:03;-0.50;99.90
35668;DHT22;22158;59.280;17.806;2023-03-31T06:58:30;-0.40;99.90
35668;DHT22;22158;59.280;17.806;2023-03-31T07:00:55;-0.30;99.90
35668;DHT22;22158;59.280;17.806;2023-03-31T07:03:21;-0.30;99.90
35668;DHT22;22158;59.280;17.806;2023-03-31T07:05:52;-0.30;99.90
35668;DHT22;22158;59.280;17.806;2023-03-31T07:08:18;-0.30;99.90
35668;DHT22;22158;59.280;17.806;2023-03-31T07:10:45;-0.30;99.90
35668;DHT22;22158;59.280;17.806;2023-03-31T07:13:14;-0.20;99.90
35668;DHT22;22158;59.280;17.806;2023-03-31T07:15:41;-0.20;99.90
35668;DHT22;22158;59.280;17.806;2023-03-31T07:18:07;-0.20;99.90
35668;DHT22;22158;59.280;17.806;2023-03-31T07:20:34;-0.10;99.90
35668;DHT22;22158;59.280;17.806;2023-03-31T07:23:02;-0.10;99.90
35668;DHT22;22158;59.280;17.806;2023-03-31T07:25:29;0.00;99.90
35668;DHT22;22158;59.280;17.806;2023-03-31T07:27:54;0.10;99.90
35668;DHT22;22158;59.280;17.806;2023-03-31T07:30:20;0.10;99.90
35668;DHT22;22158;59.280;17.806;2023-03-31T07:32:47;0.10;99.90
35668;DHT22;22158;59.280;17.806;2023-03-31T07:35:13;0.10;99.90
35668;DHT22;22158;59.280;17.806;2023-03-31T07:37:41;0.20;99.90
35668;DHT22;22158;59.280;17.806;2023-03-31T07:40:10;0.20;99.90
35668;DHT22;22158;59.280;17.806;2023-03-31T07:42:36;0.20;99.90
35668;DHT22;22158;59.280;17.806;2023-03-31T07:45:02;0.20;99.90
35668;DHT22;22158;59.280;17.806;2023-03-31T07:47:30;0.20;99.90
35668;DHT22;22158;59.280;17.806;2023-03-31T07:49:56;0.20;99.90
35668;DHT22;22158;59.280;17.806;2023-03-31T07:52:22;0.20;99.90
35668;DHT22;22158;59.280;17.806;2023-03-31T07:54:48;0.20;99.90
35668;DHT22;22158;59.280;17.806;2023-03-31T07:57:14;0.40;99.90
35668;DHT22;22158;59.280;17.806;2023-03-31T07:59:42;0.40;99.90
35668;DHT22;22158;59.280;17.806;2023-03-31T08:02:13;0.50;99.90
35668;DHT22;22158;59.280;17.806;2023-03-31T08:04:39;0.60;99.90
35668;DHT22;22158;59.280;17.806;2023-03-31T08:07:11;0.70;99.90
35668;DHT22;22158;59.280;17.806;2023-03-31T08:09:38;0.90;99.90
35668;DHT22;22158;59.280;17.806;2023-03-31T08:12:04;0.90;99.90
35668;DHT22;22158;59.280;17.806;2023-03-31T08:14:30;1.00;99.90
35668;DHT22;22158;59.280;17.806;2023-03-31T08:16:56;1.00;99.90
35668;DHT22;22158;59.280;17.806;2023-03-31T08:19:25;1.10;99.90
35668;DHT22;22158;59.280;17.806;2023-03-31T08:21:50;1.20;99.90
35668;DHT22;22158;59.280;17.806;2023-03-31T08:24:17;1.20;99.90
35668;DHT22;22158;59.280;17.806;2023-03-31T08:26:42;1.20;99.90
35668;DHT22;22158;59.280;17.806;2023-03-31T08:29:08;1.30;99.90
35668;DHT22;22158;59.280;17.806;2023-03-31T08:31:33;1.40;99.90
35668;DHT22;22158;59.280;17.806;2023-03-31T08:33:59;1.40;99.90
35668;DHT22;22158;59.280;17.806;2023-03-31T08:36:25;1.30;99.90
35668;DHT22;22158;59.280;17.806;2023-03-31T08:38:51;1.40;99.90
35668;DHT22;22158;59.280;17.806;2023-03-31T08:44:19;1.40;99.90
35668;DHT22;22158;59.280;17.806;2023-03-31T08:46:48;1.40;99.90
35668;DHT22;22158;59.280;17.806;2023-03-31T08:49:18;1.40;99.90
35668;DHT22;22158;59.280;17.806;2023-03-31T08:51:50;1.40;99.90
35668;DHT22;22158;59.280;17.806;2023-03-31T08:56:51;1.20;99.90
35668;DHT22;22158;59.280;17.806;2023-03-31T09:01:52;1.20;99.90
35668;DHT22;22158;59.280;17.806;2023-03-31T09:04:44;1.30;99.90
35668;DHT22;22158;59.280;17.806;2023-03-31T09:07:33;1.40;99.90
35668;DHT22;22158;59.280;17.806;2023-03-31T09:10:29;1.50;99.90
35668;DHT22;22158;59.280;17.806;2023-03-31T09:16:12;1.70;99.90
35668;DHT22;22158;59.280;17.806;2023-03-31T09:18:40;1.80;99.90
35668;DHT22;22158;59.280;17.806;2023-03-31T09:21:22;1.90;99.90
35668;DHT22;22158;59.280;17.806;2023-03-31T09:24:02;2.00;99.90
35668;DHT22;22158;59.280;17.806;2023-03-31T09:26:41;2.00;99.90
35668;DHT22;22158;59.280;17.806;2023-03-31T09:29:33;1.90;99.90
35668;DHT22;22158;59.280;17.806;2023-03-31T09:32:13;1.80;99.90
35668;DHT22;22158;59.280;17.806;2023-03-31T09:34:39;1.80;99.90
35668;DHT22;22158;59.280;17.806;2023-03-31T09:37:05;1.70;99.90
35668;DHT22;22158;59.280;17.806;2023-03-31T09:39:31;1.50;99.90
35668;DHT22;22158;59.280;17.806;2023-03-31T09:41:56;1.50;99.90
35668;DHT22;22158;59.280;17.806;2023-03-31T09:44:43;1.50;99.90
35668;DHT22;22158;59.280;17.806;2023-03-31T09:49:51;1.50;99.90
35668;DHT22;22158;59.280;17.806;2023-03-31T09:54:53;1.60;99.90
35668;DHT22;22158;59.280;17.806;2023-03-31T09:57:32;1.60;99.90
35668;DHT22;22158;59.280;17.806;2023-03-31T10:02:53;1.80;99.90
35668;DHT22;22158;59.280;17.806;2023-03-31T10:08:30;1.90;99.90
35668;DHT22;22158;59.280;17.806;2023-03-31T10:18:54;2.10;99.90
35668;DHT22;22158;59.280;17.806;2023-03-31T10:21:24;2.10;99.90
35668;DHT22;22158;59.280;17.806;2023-03-31T10:23:51;2.10;99.90
35668;DHT22;22158;59.280;17.806;2023-03-31T10:26:26;2.20;99.90
35668;DHT22;22158;59.280;17.806;2023-03-31T10:28:53;2.20;99.90
35668;DHT22;22158;59.280;17.806;2023-03-31T10:31:23;2.20;99.90
35668;DHT22;22158;59.280;17.806;2023-03-31T10:33:51;2.20;99.90
35668;DHT22;22158;59.280;17.806;2023-03-31T10:36:27;2.30;99.90
35668;DHT22;22158;59.280;17.806;2023-03-31T10:38:54;2.50;99.90
35668;DHT22;22158;59.280;17.806;2023-03-31T10:41:27;2.70;99.90
35668;DHT22;22158;59.280;17.806;2023-03-31T10:43:55;2.80;99.90
35668;DHT22;22158;59.280;17.806;2023-03-31T10:46:42;3.00;99.70
35668;DHT22;22158;59.280;17.806;2023-03-31T10:49:33;3.20;99.50
35668;DHT22;22158;59.280;17.806;2023-03-31T10:52:01;3.20;99.10
35668;DHT22;22158;59.280;17.806;2023-03-31T10:54:27;3.30;99.10
35668;DHT22;22158;59.280;17.806;2023-03-31T10:56:57;3.10;97.70
35668;DHT22;22158;59.280;17.806;2023-03-31T11:05:55;2.90;96.90
35668;DHT22;22158;59.280;17.806;2023-03-31T11:11:13;2.80;97.20
35668;DHT22;22158;59.280;17.806;2023-03-31T11:13:52;2.80;97.80
35668;DHT22;22158;59.280;17.806;2023-03-31T11:22:06;2.70;97.80
35668;DHT22;22158;59.280;17.806;2023-03-31T11:25:01;2.60;97.80
35668;DHT22;22158;59.280;17.806;2023-03-31T11:27:56;2.50;97.90
35668;DHT22;22158;59.280;17.806;2023-03-31T11:38:50;2.90;97.60
35668;DHT22;22158;59.280;17.806;2023-03-31T11:41:20;3.00;97.30
35668;DHT22;22158;59.280;17.806;2023-03-31T11:43:49;3.10;96.70
35668;DHT22;22158;59.280;17.806;2023-03-31T11:46:27;3.20;96.90
35668;DHT22;22158;59.280;17.806;2023-03-31T11:54:30;3.30;96.60
35668;DHT22;22158;59.280;17.806;2023-03-31T11:57:02;3.30;96.90
35668;DHT22;22158;59.280;17.806;2023-03-31T11:59:31;3.30;96.80
35668;DHT22;22158;59.280;17.806;2023-03-31T12:02:03;3.30;96.90
35668;DHT22;22158;59.280;17.806;2023-03-31T12:04:40;3.40;97.10
35668;DHT22;22158;59.280;17.806;2023-03-31T12:07:28;3.50;96.90
35668;DHT22;22158;59.280;17.806;2023-03-31T12:12:42;3.80;96.40
35668;DHT22;22158;59.280;17.806;2023-03-31T12:18:00;3.80;95.70
35668;DHT22;22158;59.280;17.806;2023-03-31T12:20:36;3.90;95.60
35668;DHT22;22158;59.280;17.806;2023-03-31T12:23:11;3.90;95.20
35668;DHT22;22158;59.280;17.806;2023-03-31T12:25:48;3.80;94.70
35668;DHT22;22158;59.280;17.806;2023-03-31T12:28:17;3.80;94.90
35668;DHT22;22158;59.280;17.806;2023-03-31T12:30:44;3.70;94.00
35668;DHT22;22158;59.280;17.806;2023-03-31T12:33:24;3.80;94.60
35668;DHT22;22158;59.280;17.806;2023-03-31T12:43:58;3.80;94.70
35668;DHT22;22158;59.280;17.806;2023-03-31T12:49:58;3.70;94.50
35668;DHT22;22158;59.280;17.806;2023-03-31T12:55:26;3.80;93.70
35668;DHT22;22158;59.280;17.806;2023-03-31T13:06:02;3.60;92.80
35668;DHT22;22158;59.280;17.806;2023-03-31T13:11:37;3.70;92.50
35668;DHT22;22158;59.280;17.806;2023-03-31T13:16:36;3.90;91.60
35668;DHT22;22158;59.280;17.806;2023-03-31T13:19:02;4.10;92.80
35668;DHT22;22158;59.280;17.806;2023-03-31T13:21:27;4.20;92.20
35668;DHT22;22158;59.280;17.806;2023-03-31T13:23:58;4.10;92.20
35668;DHT22;22158;59.280;17.806;2023-03-31T13:26:36;4.10;92.00
35668;DHT22;22158;59.280;17.806;2023-03-31T13:34:26;4.20;91.00
35668;DHT22;22158;59.280;17.806;2023-03-31T13:37:14;4.20;91.40
35668;DHT22;22158;59.280;17.806;2023-03-31T13:56:44;5.00;90.80
35668;DHT22;22158;59.280;17.806;2023-03-31T13:59:21;5.20;90.60
35668;DHT22;22158;59.280;17.806;2023-03-31T14:07:08;4.90;84.50
35668;DHT22;22158;59.280;17.806;2023-03-31T14:09:39;4.70;86.20
35668;DHT22;22158;59.280;17.806;2023-03-31T14:14:53;4.60;84.30
35668;DHT22;22158;59.280;17.806;2023-03-31T14:17:26;4.50;82.50
35668;DHT22;22158;59.280;17.806;2023-03-31T14:23:01;4.60;83.30
35668;DHT22;22158;59.280;17.806;2023-03-31T14:25:49;4.50;82.40
35668;DHT22;22158;59.280;17.806;2023-03-31T14:31:29;4.30;83.40
35668;DHT22;22158;59.280;17.806;2023-03-31T14:34:25;4.00;82.10
35668;DHT22;22158;59.280;17.806;2023-03-31T14:39:28;3.60;84.60
35668;DHT22;22158;59.280;17.806;2023-03-31T14:41:58;3.40;85.10
35668;DHT22;22158;59.280;17.806;2023-03-31T14:44:25;3.20;85.50
35668;DHT22;22158;59.280;17.806;2023-03-31T14:46:51;3.10;86.60
35668;DHT22;22158;59.280;17.806;2023-03-31T14:49:28;3.10;87.00
35668;DHT22;22158;59.280;17.806;2023-03-31T14:51:59;2.90;87.00
35668;DHT22;22158;59.280;17.806;2023-03-31T14:54:25;2.80;86.80
35668;DHT22;22158;59.280;17.806;2023-03-31T14:56:55;2.90;88.20
35668;DHT22;22158;59.280;17.806;2023-03-31T14:59:25;3.10;87.40
35668;DHT22;22158;59.280;17.806;2023-03-31T15:01:52;3.10;85.00
35668;DHT22;22158;59.280;17.806;2023-03-31T15:04:24;3.10;85.60
35668;DHT22;22158;59.280;17.806;2023-03-31T15:06:51;3.10;86.00
35668;DHT22;22158;59.280;17.806;2023-03-31T15:09:25;3.20;85.40
35668;DHT22;22158;59.280;17.806;2023-03-31T15:11:59;3.30;84.70
35668;DHT22;22158;59.280;17.806;2023-03-31T15:14:35;3.50;84.30
35668;DHT22;22158;59.280;17.806;2023-03-31T15:17:03;3.70;83.30
35668;DHT22;22158;59.280;17.806;2023-03-31T15:19:32;3.90;83.50
35668;DHT22;22158;59.280;17.806;2023-03-31T15:22:04;4.00;82.70
35668;DHT22;22158;59.280;17.806;2023-03-31T15:24:33;4.30;83.50
35668;DHT22;22158;59.280;17.806;2023-03-31T15:27:06;4.40;84.60
35668;DHT22;22158;59.280;17.806;2023-03-31T15:29:46;4.50;83.10
35668;DHT22;22158;59.280;17.806;2023-03-31T15:32:25;4.50;82.10
35668;DHT22;22158;59.280;17.806;2023-03-31T15:34:53;4.40;82.80
35668;DHT22;22158;59.280;17.806;2023-03-31T15:37:25;4.30;78.10
35668;DHT22;22158;59.280;17.806;2023-03-31T15:39:54;4.20;79.60
35668;DHT22;22158;59.280;17.806;2023-03-31T15:42:21;4.10;82.50
35668;DHT22;22158;59.280;17.806;2023-03-31T15:47:51;3.90;81.20
35668;DHT22;22158;59.280;17.806;2023-03-31T15:50:20;3.60;82.50
35668;DHT22;22158;59.280;17.806;2023-03-31T15:52:47;3.30;81.40
35668;DHT22;22158;59.280;17.806;2023-03-31T15:55:29;3.30;82.80
35668;DHT22;22158;59.280;17.806;2023-03-31T15:57:57;3.30;82.90
35668;DHT22;22158;59.280;17.806;2023-03-31T16:02:59;2.90;82.10
35668;DHT22;22158;59.280;17.806;2023-03-31T16:08:13;2.60;81.30
35668;DHT22;22158;59.280;17.806;2023-03-31T16:10:40;2.50;81.60
35668;DHT22;22158;59.280;17.806;2023-03-31T16:13:08;2.30;82.40
35668;DHT22;22158;59.280;17.806;2023-03-31T16:15:39;2.10;82.40
35668;DHT22;22158;59.280;17.806;2023-03-31T16:18:15;1.90;83.00
35668;DHT22;22158;59.280;17.806;2023-03-31T16:20:44;1.90;83.00
35668;DHT22;22158;59.280;17.806;2023-03-31T16:23:18;1.90;82.90
35668;DHT22;22158;59.280;17.806;2023-03-31T16:25:44;1.80;82.40
35668;DHT22;22158;59.280;17.806;2023-03-31T16:28:16;1.80;82.30
35668;DHT22;22158;59.280;17.806;2023-03-31T16:30:44;1.90;83.80
35668;DHT22;22158;59.280;17.806;2023-03-31T16:35:47;1.90;83.30
35668;DHT22;22158;59.280;17.806;2023-03-31T16:38:14;1.90;82.90
35668;DHT22;22158;59.280;17.806;2023-03-31T16:40:43;1.90;83.10
35668;DHT22;22158;59.280;17.806;2023-03-31T16:45:45;1.80;84.00
35668;DHT22;22158;59.280;17.806;2023-03-31T16:48:12;1.60;84.50
35668;DHT22;22158;59.280;17.806;2023-03-31T16:50:38;1.50;85.60
35668;DHT22;22158;59.280;17.806;2023-03-31T16:53:05;1.40;86.20
35668;DHT22;22158;59.280;17.806;2023-03-31T16:55:31;1.30;86.30
35668;DHT22;22158;59.280;17.806;2023-03-31T16:57:58;1.20;85.80
35668;DHT22;22158;59.280;17.806;2023-03-31T17:00:32;1.20;86.20
35668;DHT22;22158;59.280;17.806;2023-03-31T17:03:00;1.10;87.10
35668;DHT22;22158;59.280;17.806;2023-03-31T17:05:27;1.00;87.50
35668;DHT22;22158;59.280;17.806;2023-03-31T17:07:53;0.90;88.10
35668;DHT22;22158;59.280;17.806;2023-03-31T17:10:20;0.80;88.60
35668;DHT22;22158;59.280;17.806;2023-03-31T17:12:45;0.70;88.90
35668;DHT22;22158;59.280;17.806;2023-03-31T17:15:12;0.60;89.30
35668;DHT22;22158;59.280;17.806;2023-03-31T17:17:38;0.50;89.90
35668;DHT22;22158;59.280;17.806;2023-03-31T17:20:04;0.50;90.10
35668;DHT22;22158;59.280;17.806;2023-03-31T17:22:31;0.40;90.00
35668;DHT22;22158;59.280;17.806;2023-03-31T17:24:57;0.30;89.60
35668;DHT22;22158;59.280;17.806;2023-03-31T17:27:24;0.30;90.20
35668;DHT22;22158;59.280;17.806;2023-03-31T17:29:50;0.20;90.40
35668;DHT22;22158;59.280;17.806;2023-03-31T17:32:16;0.20;90.50
35668;DHT22;22158;59.280;17.806;2023-03-31T17:34:42;0.10;90.60
35668;DHT22;22158;59.280;17.806;2023-03-31T17:37:07;0.10;90.50
35668;DHT22;22158;59.280;17.806;2023-03-31T17:39:33;0.10;90.70
35668;DHT22;22158;59.280;17.806;2023-03-31T17:41:59;0.10;90.80
35668;DHT22;22158;59.280;17.806;2023-03-31T17:44:25;0.00;90.80
35668;DHT22;22158;59.280;17.806;2023-03-31T17:46:50;-0.10;90.90
35668;DHT22;22158;59.280;17.806;2023-03-31T17:49:16;-0.20;91.00
35668;DHT22;22158;59.280;17.806;2023-03-31T17:51:42;-0.20;91.10
35668;DHT22;22158;59.280;17.806;2023-03-31T17:54:09;-0.30;91.00
35668;DHT22;22158;59.280;17.806;2023-03-31T17:56:36;-0.40;91.20
35668;DHT22;22158;59.280;17.806;2023-03-31T17:59:02;-0.40;91.40
35668;DHT22;22158;59.280;17.806;2023-03-31T18:01:28;-0.50;91.40
35668;DHT22;22158;59.280;17.806;2023-03-31T18:03:55;-0.50;91.60
35668;DHT22;22158;59.280;17.806;2023-03-31T18:06:20;-0.50;91.20
35668;DHT22;22158;59.280;17.806;2023-03-31T18:08:46;-0.60;91.30
35668;DHT22;22158;59.280;17.806;2023-03-31T18:11:12;-0.60;91.30
35668;DHT22;22158;59.280;17.806;2023-03-31T18:13:38;-0.60;91.30
35668;DHT22;22158;59.280;17.806;2023-03-31T18:16:06;-0.70;91.10
35668;DHT22;22158;59.280;17.806;2023-03-31T18:18:37;-0.80;91.10
35668;DHT22;22158;59.280;17.806;2023-03-31T18:21:04;-0.80;91.10
35668;DHT22;22158;59.280;17.806;2023-03-31T18:23:31;-0.80;90.80
35668;DHT22;22158;59.280;17.806;2023-03-31T18:25:56;-0.90;90.90
35668;DHT22;22158;59.280;17.806;2023-03-31T18:28:22;-0.90;91.00
35668;DHT22;22158;59.280;17.806;2023-03-31T18:30:47;-0.90;90.80
35668;DHT22;22158;59.280;17.806;2023-03-31T18:33:13;-1.00;90.80
35668;DHT22;22158;59.280;17.806;2023-03-31T18:38:10;-1.00;91.30
35668;DHT22;22158;59.280;17.806;2023-03-31T18:40:36;-1.10;91.40
35668;DHT22;22158;59.280;17.806;2023-03-31T18:43:02;-1.10;91.20
35668;DHT22;22158;59.280;17.806;2023-03-31T18:45:28;-1.10;91.30
35668;DHT22;22158;59.280;17.806;2023-03-31T18:47:55;-1.20;91.50
35668;DHT22;22158;59.280;17.806;2023-03-31T18:50:22;-1.20;91.70
35668;DHT22;22158;59.280;17.806;2023-03-31T18:52:48;-1.30;91.70
35668;DHT22;22158;59.280;17.806;2023-03-31T18:55:17;-1.30;92.00
35668;DHT22;22158;59.280;17.806;2023-03-31T18:57:42;-1.30;92.20
35668;DHT22;22158;59.280;17.806;2023-03-31T19:00:08;-1.40;92.10
35668;DHT22;22158;59.280;17.806;2023-03-31T19:02:34;-1.40;92.50
35668;DHT22;22158;59.280;17.806;2023-03-31T19:05:00;-1.50;92.50
35668;DHT22;22158;59.280;17.806;2023-03-31T19:07:26;-1.50;92.60
35668;DHT22;22158;59.280;17.806;2023-03-31T19:09:52;-1.60;93.10
35668;DHT22;22158;59.280;17.806;2023-03-31T19:12:17;-1.60;92.80
35668;DHT22;22158;59.280;17.806;2023-03-31T19:14:43;-1.60;92.90
35668;DHT22;22158;59.280;17.806;2023-03-31T19:17:08;-1.70;93.10
35668;DHT22;22158;59.280;17.806;2023-03-31T19:19:39;-1.70;93.40
35668;DHT22;22158;59.280;17.806;2023-03-31T19:22:05;-1.70;93.40
35668;DHT22;22158;59.280;17.806;2023-03-31T19:24:31;-1.80;93.50
35668;DHT22;22158;59.280;17.806;2023-03-31T19:26:57;-1.80;93.70
35668;DHT22;22158;59.280;17.806;2023-03-31T19:29:22;-1.80;93.90
35668;DHT22;22158;59.280;17.806;2023-03-31T19:31:48;-1.80;94.10
35668;DHT22;22158;59.280;17.806;2023-03-31T19:34:14;-1.80;94.40
35668;DHT22;22158;59.280;17.806;2023-03-31T19:36:41;-1.80;94.50
35668;DHT22;22158;59.280;17.806;2023-03-31T19:39:07;-1.90;94.70
35668;DHT22;22158;59.280;17.806;2023-03-31T19:41:34;-1.90;94.90
35668;DHT22;22158;59.280;17.806;2023-03-31T19:44:00;-1.90;95.10
35668;DHT22;22158;59.280;17.806;2023-03-31T19:46:26;-2.00;95.40
35668;DHT22;22158;59.280;17.806;2023-03-31T19:48:51;-2.00;95.10
35668;DHT22;22158;59.280;17.806;2023-03-31T19:51:17;-2.00;95.20
35668;DHT22;22158;59.280;17.806;2023-03-31T19:53:43;-2.00;95.30
35668;DHT22;22158;59.280;17.806;2023-03-31T19:56:12;-2.10;95.30
35668;DHT22;22158;59.280;17.806;2023-03-31T19:58:39;-2.10;95.30
35668;DHT22;22158;59.280;17.806;2023-03-31T20:01:07;-2.10;95.50
35668;DHT22;22158;59.280;17.806;2023-03-31T20:03:33;-2.10;95.60
35668;DHT22;22158;59.280;17.806;2023-03-31T20:06:09;-2.20;95.50
35668;DHT22;22158;59.280;17.806;2023-03-31T20:08:35;-2.10;95.80
35668;DHT22;22158;59.280;17.806;2023-03-31T20:11:03;-2.10;95.90
35668;DHT22;22158;59.280;17.806;2023-03-31T20:13:29;-2.20;96.10
35668;DHT22;22158;59.280;17.806;2023-03-31T20:16:01;-2.20;96.40
35668;DHT22;22158;59.280;17.806;2023-03-31T20:18:27;-2.20;96.70
35668;DHT22;22158;59.280;17.806;2023-03-31T20:21:06;-2.20;97.00
35668;DHT22;22158;59.280;17.806;2023-03-31T20:23:32;-2.20;97.20
35668;DHT22;22158;59.280;17.806;2023-03-31T20:25:58;-2.20;97.40
35668;DHT22;22158;59.280;17.806;2023-03-31T20:28:26;-2.30;97.50
35668;DHT22;22158;59.280;17.806;2023-03-31T20:30:51;-2.40;97.80
35668;DHT22;22158;59.280;17.806;2023-03-31T20:33:23;-2.40;98.00
35668;DHT22;22158;59.280;17.806;2023-03-31T20:36:02;-2.40;98.40
35668;DHT22;22158;59.280;17.806;2023-03-31T20:38:29;-2.40;98.90
35668;DHT22;22158;59.280;17.806;2023-03-31T20:40:55;-2.40;98.80
35668;DHT22;22158;59.280;17.806;2023-03-31T20:43:22;-2.50;99.00
35668;DHT22;22158;59.280;17.806;2023-03-31T20:45:52;-2.50;99.30
35668;DHT22;22158;59.280;17.806;2023-03-31T20:48:19;-2.50;99.60
35668;DHT22;22158;59.280;17.806;2023-03-31T20:50:44;-2.50;99.70
35668;DHT22;22158;59.280;17.806;2023-03-31T20:53:10;-2.60;99.90
35668;DHT22;22158;59.280;17.806;2023-03-31T20:55:36;-2.60;99.90
35668;DHT22;22158;59.280;17.806;2023-03-31T20:58:01;-2.60;99.90
35668;DHT22;22158;59.280;17.806;2023-03-31T21:00:27;-2.60;99.90
35668;DHT22;22158;59.280;17.806;2023-03-31T21:02:53;-2.60;99.90
35668;DHT22;22158;59.280;17.806;2023-03-31T21:05:18;-2.70;99.90
35668;DHT22;22158;59.280;17.806;2023-03-31T21:07:44;-2.70;99.90
35668;DHT22;22158;59.280;17.806;2023-03-31T21:10:09;-2.70;99.90
35668;DHT22;22158;59.280;17.806;2023-03-31T21:12:35;-2.80;99.90
35668;DHT22;22158;59.280;17.806;2023-03-31T21:15:02;-2.80;99.90
35668;DHT22;22158;59.280;17.806;2023-03-31T21:17:28;-2.90;99.90
35668;DHT22;22158;59.280;17.806;2023-03-31T21:19:53;-2.90;99.90
35668;DHT22;22158;59.280;17.806;2023-03-31T21:22:19;-2.90;99.90
35668;DHT22;22158;59.280;17.806;2023-03-31T21:24:44;-3.00;99.90
35668;DHT22;22158;59.280;17.806;2023-03-31T21:27:10;-3.00;99.90
35668;DHT22;22158;59.280;17.806;2023-03-31T21:29:36;-3.00;99.90
35668;DHT22;22158;59.280;17.806;2023-03-31T21:32:01;-3.00;99.90
35668;DHT22;22158;59.280;17.806;2023-03-31T21:34:27;-3.00;99.90
35668;DHT22;22158;59.280;17.806;2023-03-31T21:36:52;-3.10;99.90
35668;DHT22;22158;59.280;17.806;2023-03-31T21:39:18;-3.00;99.90
35668;DHT22;22158;59.280;17.806;2023-03-31T21:41:43;-3.00;99.90
35668;DHT22;22158;59.280;17.806;2023-03-31T21:44:09;-3.00;99.90
35668;DHT22;22158;59.280;17.806;2023-03-31T21:46:35;-3.00;99.90
35668;DHT22;22158;59.280;17.806;2023-03-31T21:49:01;-3.00;99.90
35668;DHT22;22158;59.280;17.806;2023-03-31T21:51:27;-3.00;99.90
35668;DHT22;22158;59.280;17.806;2023-03-31T21:53:53;-3.10;99.90
35668;DHT22;22158;59.280;17.806;2023-03-31T21:56:21;-3.10;99.90
35668;DHT22;22158;59.280;17.806;2023-03-31T21:58:47;-3.10;99.90
35668;DHT22;22158;59.280;17.806;2023-03-31T22:01:15;-3.20;99.90
35668;DHT22;22158;59.280;17.806;2023-03-31T22:03:41;-3.20;99.90
35668;DHT22;22158;59.280;17.806;2023-03-31T22:06:07;-3.20;99.90
35668;DHT22;22158;59.280;17.806;2023-03-31T22:08:33;-3.20;99.90
35668;DHT22;22158;59.280;17.806;2023-03-31T22:11:01;-3.30;99.90
35668;DHT22;22158;59.280;17.806;2023-03-31T22:13:27;-3.30;99.90
35668;DHT22;22158;59.280;17.806;2023-03-31T22:15:53;-3.40;99.90
35668;DHT22;22158;59.280;17.806;2023-03-31T22:18:19;-3.40;99.90
35668;DHT22;22158;59.280;17.806;2023-03-31T22:20:47;-3.50;99.90
35668;DHT22;22158;59.280;17.806;2023-03-31T22:23:13;-3.50;99.90
35668;DHT22;22158;59.280;17.806;2023-03-31T22:25:39;-3.50;99.90
35668;DHT22;22158;59.280;17.806;2023-03-31T22:28:05;-3.50;99.90
35668;DHT22;22158;59.280;17.806;2023-03-31T22:30:31;-3.50;99.90
35668;DHT22;22158;59.280;17.806;2023-03-31T22:32:57;-3.50;99.90
35668;DHT22;22158;59.280;17.806;2023-03-31T22:35:23;-3.60;99.90
35668;DHT22;22158;59.280;17.806;2023-03-31T22:37:48;-3.60;99.90
35668;DHT22;22158;59.280;17.806;2023-03-31T22:40:14;-3.70;99.90
35668;DHT22;22158;59.280;17.806;2023-03-31T22:42:40;-3.70;99.90
35668;DHT22;22158;59.280;17.806;2023-03-31T22:45:07;-3.70;99.90
35668;DHT22;22158;59.280;17.806;2023-03-31T22:47:33;-3.70;99.90
35668;DHT22;22158;59.280;17.806;2023-03-31T22:49:58;-3.70;99.90
35668;DHT22;22158;59.280;17.806;2023-03-31T22:52:24;-3.70;99.90
35668;DHT22;22158;59.280;17.806;2023-03-31T22:54:50;-3.80;99.90
35668;DHT22;22158;59.280;17.806;2023-03-31T22:57:16;-3.80;99.90
35668;DHT22;22158;59.280;17.806;2023-03-31T22:59:42;-3.80;99.90
